Time;durP1;ratioP1;P1;durP2;ratioP2;P2;SDS_P1;SDS_P2;PMS_P1;PMS_P2;Temp;Humidity;BMP_temperature;BMP_pressure;BME280_temperature;BME280_humidity;BME280_pressure;Samples;Min_cycle;Max_cycle;Signal;HPM_P1;HPM_P2
2023/10/12 00:01:58;;;;;;;;;;;;;;;;;;5113183;28;20329;-54
2023/10/12 00:04:23;;;;;;;;;;;;;;;;;;5112889;28;19924;-54
2023/10/12 00:06:51;;;;;;;;;;;;;;;;;;5112786;28;19924;-54
2023/10/12 00:09:17;;;;;;;;;;;;;;;;;;5112863;28;19928;-53
2023/10/12 00:11:46;;;;;;;;;;;;;;;;;;5112517;28;19934;-53
2023/10/12 00:14:14;;;;;;;;;;;;;;;;;;5111968;28;19970;-53
2023/10/12 00:16:42;;;;;;;;;;;;;;;;;;5113064;28;19979;-54
2023/10/12 00:19:11;;;;;;;;;;;;;;;;;;5112769;28;19924;-53
2023/10/12 00:21:37;;;;;;;;;;;;;;;;;;5112938;28;19928;-53
2023/10/12 00:24:04;;;;;;;;;;;;;;;;;;5112776;28;20018;-54
2023/10/12 00:26:31;;;;;;;;;;;;;;;;;;5113276;28;19973;-54
2023/10/12 00:28:57;;;;;;;;;;;;;;;;;;5112803;28;19970;-54
2023/10/12 00:31:22;;;;;;;;;;;;;;;;;;5112810;28;19928;-54
2023/10/12 00:33:49;;;;;;;;;;;;;;;;;;5112664;28;19959;-54
2023/10/12 00:36:21;;;;;;;;;;;;;;;;;;5117692;28;19923;-53
2023/10/12 00:38:47;;;;;;;;;;;;;;;;;;5121628;28;19931;-53
2023/10/12 00:41:14;;;;;;;;;;;;;;;;;;5112448;28;19924;-54
2023/10/12 00:43:41;;;;;;;;;;;;;;;;;;5112143;28;19935;-53
2023/10/12 00:46:39;;;;;;;;;;;;;;;;;;5111868;28;19966;-54
2023/10/12 00:49:27;;;;;;;;;;;;;;;;;;5102732;28;19973;-53
2023/10/12 00:51:38;;;;;;;;;;;;;;;;;;5097238;28;19967;-53
2023/10/12 00:54:04;;;;;;;;;;;;;;;;;;5112120;28;19951;-53
2023/10/12 00:56:30;;;;;;;;;;;;;;;;;;5112064;28;19976;-53
2023/10/12 00:58:56;;;;;;;;;;;;;;;;;;5112101;28;19931;-53
2023/10/12 01:01:22;;;;;;;;;;;;;;;;;;5111879;28;20015;-54
2023/10/12 01:03:49;;;;;;;;;;;;;;;;;;5111889;28;19924;-53
2023/10/12 01:06:27;;;;;;;;;;;;;;;;;;5112008;28;19924;-53
2023/10/12 01:08:57;;;;;;;;;;;;;;;;;;5111311;28;19924;-53
2023/10/12 01:11:26;;;;;;;;;;;;;;;;;;5111307;28;19927;-53
2023/10/12 01:19:22;;;;;;;;;;;;;;;;;;5190507;27;20393;-53
2023/10/12 01:21:47;;;;;;;;;;;;;;;;;;5190478;27;19975;-54
2023/10/12 01:24:13;;;;;;;;;;;;;;;;;;5190353;27;20005;-54
2023/10/12 01:26:38;;;;;;;;;;;;;;;;;;5190728;27;20017;-54
2023/10/12 01:29:04;;;;;;;;;;;;;;;;;;5190287;27;20378;-53
2023/10/12 01:31:30;;;;;;;;;;;;;;;;;;5190489;27;20035;-54
2023/10/12 01:33:55;;;;;;;;;;;;;;;;;;5190190;27;19977;-54
2023/10/12 01:36:21;;;;;;;;;;;;;;;;;;5183159;27;19934;-53
2023/10/12 01:38:47;;;;;;;;;;;;;;;;;;5189671;27;19926;-53
2023/10/12 01:41:12;;;;;;;;;;;;;;;;;;5190473;27;20414;-53
2023/10/12 01:43:38;;;;;;;;;;;;;;;;;;5168153;27;20391;-53
2023/10/12 01:46:11;;;;;;;;;;;;;;;;;;5169130;27;19923;-53
2023/10/12 01:48:37;;;;;;;;;;;;;;;;;;5168363;27;19930;-54
2023/10/12 01:51:04;;;;;;;;;;;;;;;;;;5168832;27;19923;-53
2023/10/12 01:53:32;;;;;;;;;;;;;;;;;;5168532;27;19923;-54
2023/10/12 01:55:58;;;;;;;;;;;;;;;;;;5169106;27;20027;-54
2023/10/12 01:58:27;;;;;;;;;;;;;;;;;;5160856;27;19927;-53
2023/10/12 02:00:53;;;;;;;;;;;;;;;;;;5148260;27;20341;-53
2023/10/12 02:03:26;;;;;;;;;;;;;;;;;;5148017;27;20375;-54
2023/10/12 02:05:58;;;;;;;;;;;;;;;;;;5148375;27;20050;-54
2023/10/12 02:08:26;;;;;;;;;;;;;;;;;;5147372;27;19931;-53
2023/10/12 02:10:56;;;;;;;;;;;;;;;;;;5147793;27;20409;-54
2023/10/12 02:13:22;;;;;;;;;;;;;;;;;;5147111;27;19970;-54
2023/10/12 02:15:49;;;;;;;;;;;;;;;;;;5146964;27;20279;-53
2023/10/12 02:18:16;;;;;;;;;;;;;;;;;;5148286;27;20021;-54
2023/10/12 02:20:59;;;;;;;;;;;;;;;;;;5148583;27;19989;-53
2023/10/12 02:23:32;;;;;;;;;;;;;;;;;;5147973;27;19927;-54
2023/10/12 02:25:57;;;;;;;;;;;;;;;;;;5146395;27;19931;-53
2023/10/12 02:28:23;;;;;;;;;;;;;;;;;;5134234;27;20010;-54
2023/10/12 02:30:48;;;;;;;;;;;;;;;;;;5134881;28;19923;-54
2023/10/12 02:33:17;;;;;;;;;;;;;;;;;;5133834;28;19923;-53
2023/10/12 02:35:44;;;;;;;;;;;;;;;;;;5155755;27;19970;-54
2023/10/12 02:38:14;;;;;;;;;;;;;;;;;;5167248;27;19923;-53
2023/10/12 02:40:41;;;;;;;;;;;;;;;;;;5133874;28;19923;-53
2023/10/12 02:43:09;;;;;;;;;;;;;;;;;;5133677;28;19923;-54
2023/10/12 02:45:40;;;;;;;;;;;;;;;;;;5151043;27;19923;-53
2023/10/12 02:48:12;;;;;;;;;;;;;;;;;;5154005;27;19930;-54
2023/10/12 02:50:57;;;;;;;;;;;;;;;;;;5154423;27;19931;-54
2023/10/12 02:53:28;;;;;;;;;;;;;;;;;;5154478;27;20242;-54
2023/10/12 02:55:58;;;;;;;;;;;;;;;;;;5154999;27;19978;-53
2023/10/12 02:58:24;;;;;;;;;;;;;;;;;;5154428;27;19923;-53
2023/10/12 03:00:55;;;;;;;;;;;;;;;;;;5154336;27;19968;-53
2023/10/12 03:03:25;;;;;;;;;;;;;;;;;;5153888;27;19923;-54
2023/10/12 03:05:52;;;;;;;;;;;;;;;;;;5154275;27;20469;-54
2023/10/12 03:08:17;;;;;;;;;;;;;;;;;;5153810;27;19931;-54
2023/10/12 03:11:16;;;;;;;;;;;;;;;;;;5154714;27;20352;-53
2023/10/12 03:13:33;;;;;;;;;;;;;;;;;;5138172;27;19971;-54
2023/10/12 03:16:03;;;;;;;;;;;;;;;;;;5154334;27;20291;-53
2023/10/12 03:18:29;;;;;;;;;;;;;;;;;;5153800;27;19946;-54
2023/10/12 03:21:27;;;;;;;;;;;;;;;;;;5153818;27;20379;-53
2023/10/12 03:23:39;;;;;;;;;;;;;;;;;;5138316;27;20398;-53
2023/10/12 03:26:16;;;;;;;;;;;;;;;;;;5154312;27;19923;-54
2023/10/12 03:28:45;;;;;;;;;;;;;;;;;;5154181;27;20391;-54
2023/10/12 03:31:15;;;;;;;;;;;;;;;;;;5154114;27;20367;-53
2023/10/12 03:33:46;;;;;;;;;;;;;;;;;;5145249;27;19987;-54
2023/10/12 03:36:22;;;;;;;;;;;;;;;;;;5162628;27;19930;-51
2023/10/12 03:38:58;;;;;;;;;;;;;;;;;;5152644;27;19970;-53
2023/10/12 03:44:09;;;;;;;;;;;;;;;;;;5190573;27;20014;-54
2023/10/12 03:46:35;;;;;;;;;;;;;;;;;;5190623;27;20279;-54
2023/10/12 03:49:32;;;;;;;;;;;;;;;;;;5189988;27;20283;-53
2023/10/12 03:51:47;;;;;;;;;;;;;;;;;;5184796;27;20523;-54
2023/10/12 03:54:26;;;;;;;;;;;;;;;;;;5189532;27;19923;-54
2023/10/12 03:56:53;;;;;;;;;;;;;;;;;;5190511;27;20294;-53
2023/10/12 03:59:31;;;;;;;;;;;;;;;;;;5174363;27;19923;-54
2023/10/12 04:02:00;;;;;;;;;;;;;;;;;;5169392;27;19923;-54
2023/10/12 04:04:29;;;;;;;;;;;;;;;;;;5169233;27;20359;-53
2023/10/12 04:09:51;;;;;;;;;;;;;;;;;;5190742;27;20003;-54
2023/10/12 04:12:35;;;;;;;;;;;;;;;;;;5190597;27;19934;-53
2023/10/12 04:15:06;;;;;;;;;;;;;;;;;;5190400;27;19926;-53
2023/10/12 04:20:15;;;;;;;;;;;;;;;;;;5190370;27;19922;-54
2023/10/12 04:25:32;;;;;;;;;;;;;;;;;;5190973;27;20022;-53
2023/10/12 04:28:10;;;;;;;;;;;;;;;;;;5189998;27;19946;-53
2023/10/12 04:33:24;;;;;;;;;;;;;;;;;;5174010;27;19923;-54
2023/10/12 04:41:27;;;;;;;;;;;;;;;;;;5190025;27;19922;-53
2023/10/12 04:43:39;;;;;;;;;;;;;;;;;;5133328;27;19928;-54
2023/10/12 04:46:05;;;;;;;;;;;;;;;;;;5148552;27;19956;-53
2023/10/12 04:48:31;;;;;;;;;;;;;;;;;;5157977;27;19923;-54
2023/10/12 04:51:01;;;;;;;;;;;;;;;;;;5170181;27;20378;-53
2023/10/12 04:53:48;;;;;;;;;;;;;;;;;;5147576;27;19962;-54
2023/10/12 04:56:12;;;;;;;;;;;;;;;;;;5133673;27;19973;-54
2023/10/12 04:58:42;;;;;;;;;;;;;;;;;;5158923;27;19998;-54
2023/10/12 05:01:19;;;;;;;;;;;;;;;;;;5169774;27;20275;-53
2023/10/12 05:04:05;;;;;;;;;;;;;;;;;;5169202;27;19950;-53
2023/10/12 05:06:32;;;;;;;;;;;;;;;;;;5153867;27;20351;-54
2023/10/12 05:08:57;;;;;;;;;;;;;;;;;;5169050;27;20366;-53
2023/10/12 05:11:27;;;;;;;;;;;;;;;;;;5169835;27;19965;-53
2023/10/12 05:13:53;;;;;;;;;;;;;;;;;;5168103;27;19934;-54
2023/10/12 05:16:26;;;;;;;;;;;;;;;;;;5168682;27;19970;-53
2023/10/12 05:18:52;;;;;;;;;;;;;;;;;;5168396;27;20370;-54
2023/10/12 05:21:17;;;;;;;;;;;;;;;;;;5168658;27;20009;-54
2023/10/12 05:23:42;;;;;;;;;;;;;;;;;;5168163;27;20339;-54
2023/10/12 05:26:08;;;;;;;;;;;;;;;;;;5168281;27;19923;-53
2023/10/12 05:28:35;;;;;;;;;;;;;;;;;;5168150;27;19962;-53
2023/10/12 05:36:10;;;;;;;;;;;;;;;;;;5206320;27;20006;-54
2023/10/12 05:38:36;;;;;;;;;;;;;;;;;;5191792;27;19927;-53
2023/10/12 05:41:02;;;;;;;;;;;;;;;;;;5169773;27;19923;-54
2023/10/12 05:43:29;;;;;;;;;;;;;;;;;;5158803;27;19991;-54
2023/10/12 05:45:55;;;;;;;;;;;;;;;;;;5168885;27;19934;-54
2023/10/12 05:48:20;;;;;;;;;;;;;;;;;;5162140;27;19931;-53
2023/10/12 05:50:49;;;;;;;;;;;;;;;;;;5148462;27;19924;-53
2023/10/12 05:53:16;;;;;;;;;;;;;;;;;;5151721;27;19927;-54
2023/10/12 05:55:41;;;;;;;;;;;;;;;;;;5168485;27;19962;-53
2023/10/12 05:58:15;;;;;;;;;;;;;;;;;;5169081;27;19973;-54
2023/10/12 06:00:45;;;;;;;;;;;;;;;;;;5169494;27;20379;-54
2023/10/12 06:03:15;;;;;;;;;;;;;;;;;;5169615;27;19972;-54
2023/10/12 06:05:40;;;;;;;;;;;;;;;;;;5168924;27;19923;-53
2023/10/12 06:08:06;;;;;;;;;;;;;;;;;;5168352;27;19979;-53
2023/10/12 06:10:33;;;;;;;;;;;;;;;;;;5169214;27;20287;-53
2023/10/12 06:12:59;;;;;;;;;;;;;;;;;;5168519;27;19966;-53
2023/10/12 06:15:25;;;;;;;;;;;;;;;;;;5168271;27;19979;-53
2023/10/12 06:17:51;;;;;;;;;;;;;;;;;;5168986;27;19931;-53
2023/10/12 06:20:29;;;;;;;;;;;;;;;;;;5168984;27;19923;-53
2023/10/12 06:22:55;;;;;;;;;;;;;;;;;;5169118;27;19934;-54
2023/10/12 06:25:21;;;;;;;;;;;;;;;;;;5168818;27;19964;-53
2023/10/12 06:27:48;;;;;;;;;;;;;;;;;;5168852;27;19930;-54
2023/10/12 06:30:17;;;;;;;;;;;;;;;;;;5169008;27;19930;-54
2023/10/12 06:32:47;;;;;;;;;;;;;;;;;;5171136;27;19931;-53
2023/10/12 06:35:13;;;;;;;;;;;;;;;;;;5189644;27;19926;-54
2023/10/12 06:51:02;;;;;;;;;;;;;;;;;;5169884;27;19923;-53
2023/10/12 06:53:31;;;;;;;;;;;;;;;;;;5169159;27;19930;-54
2023/10/12 06:55:59;;;;;;;;;;;;;;;;;;5180669;27;20051;-54
2023/10/12 06:58:36;;;;;;;;;;;;;;;;;;5190051;27;19976;-54
2023/10/12 07:01:18;;;;;;;;;;;;;;;;;;5190814;27;20377;-53
2023/10/12 07:03:47;;;;;;;;;;;;;;;;;;5190422;27;19922;-54
2023/10/12 07:06:15;;;;;;;;;;;;;;;;;;5189930;27;20055;-53
2023/10/12 07:08:42;;;;;;;;;;;;;;;;;;5189941;27;20018;-54
2023/10/12 07:11:08;;;;;;;;;;;;;;;;;;5190019;27;19930;-54
2023/10/12 07:13:39;;;;;;;;;;;;;;;;;;5189166;27;19926;-53
2023/10/12 07:16:06;;;;;;;;;;;;;;;;;;5189842;27;19971;-53
2023/10/12 07:18:34;;;;;;;;;;;;;;;;;;5189779;27;20354;-53
2023/10/12 07:20:59;;;;;;;;;;;;;;;;;;5189929;27;19923;-53
2023/10/12 07:23:42;;;;;;;;;;;;;;;;;;5189520;27;19958;-53
2023/10/12 07:26:12;;;;;;;;;;;;;;;;;;5189942;27;20010;-53
2023/10/12 07:28:39;;;;;;;;;;;;;;;;;;5189445;27;19962;-54
2023/10/12 07:39:19;;;;;;;;;;;;;;;;;;5190019;27;19991;-53
2023/10/12 07:41:54;;;;;;;;;;;;;;;;;;5185458;27;20284;-53
2023/10/12 07:44:20;;;;;;;;;;;;;;;;;;5167981;27;19923;-53
2023/10/12 07:46:46;;;;;;;;;;;;;;;;;;5159653;27;19923;-54
2023/10/12 07:52:08;;;;;;;;;;;;;;;;;;5153327;27;20577;-54
2023/10/12 07:57:29;;;;;;;;;;;;;;;;;;5189926;27;20014;-53
2023/10/12 07:59:59;;;;;;;;;;;;;;;;;;5189466;27;19970;-53
2023/10/12 08:02:59;;;;;;;;;;;;;;;;;;5190497;27;19949;-53
2023/10/12 08:08:08;;;;;;;;;;;;;;;;;;5174191;27;20374;-54
2023/10/12 08:15:58;;;;;;;;;;;;;;;;;;5190090;27;20411;-53
2023/10/12 08:21:21;;;;;;;;;;;;;;;;;;5175786;27;20671;-53
2023/10/12 08:23:50;;;;;;;;;;;;;;;;;;5190592;27;19935;-53
2023/10/12 08:29:02;;;;;;;;;;;;;;;;;;5174852;27;19932;-54
2023/10/12 08:31:30;;;;;;;;;;;;;;;;;;5199758;27;19927;-53
2023/10/12 08:34:13;;;;;;;;;;;;;;;;;;5198137;27;19926;-54
2023/10/12 08:36:57;;;;;;;;;;;;;;;;;;5190603;27;19926;-53
2023/10/12 08:39:36;;;;;;;;;;;;;;;;;;5190468;27;19922;-53
2023/10/12 08:44:58;;;;;;;;;;;;;;;;;;5153665;27;19922;-54
2023/10/12 08:47:40;;;;;;;;;;;;;;;;;;5169700;27;19929;-54
2023/10/12 08:50:08;;;;;;;;;;;;;;;;;;5168620;27;19975;-53
2023/10/12 08:52:34;;;;;;;;;;;;;;;;;;5169368;27;20328;-53
2023/10/12 08:55:03;;;;;;;;;;;;;;;;;;5169081;27;19958;-54
2023/10/12 08:57:38;;;;;;;;;;;;;;;;;;5169044;27;20329;-53
2023/10/12 09:02:52;;;;;;;;;;;;;;;;;;5153804;27;20371;-54
2023/10/12 09:05:24;;;;;;;;;;;;;;;;;;5169222;27;19927;-54
2023/10/12 09:08:05;;;;;;;;;;;;;;;;;;5168468;27;20338;-54
2023/10/12 09:11:29;;;;;;;;;;;;;;;;;;5169060;27;19960;-54
2023/10/12 09:13:17;;;;;;;;;;;;;;;;;;5152693;27;19923;-53
2023/10/12 09:15:45;;;;;;;;;;;;;;;;;;5168472;27;20402;-53
2023/10/12 09:18:11;;;;;;;;;;;;;;;;;;5168879;27;19934;-53
2023/10/12 09:20:40;;;;;;;;;;;;;;;;;;5168162;27;20043;-54
2023/10/12 09:23:15;;;;;;;;;;;;;;;;;;5169226;27;20300;-54
2023/10/12 09:28:38;;;;;;;;;;;;;;;;;;5138793;27;20174;-54
2023/10/12 09:31:09;;;;;;;;;;;;;;;;;;5161958;27;19975;-53
2023/10/12 09:36:20;;;;;;;;;;;;;;;;;;5139079;27;19927;-54
2023/10/12 09:38:45;;;;;;;;;;;;;;;;;;5154025;27;19969;-54
2023/10/12 09:41:14;;;;;;;;;;;;;;;;;;5154579;27;20009;-54
2023/10/12 09:43:40;;;;;;;;;;;;;;;;;;5154735;27;20019;-53
2023/10/12 09:46:07;;;;;;;;;;;;;;;;;;5154607;27;20022;-53
2023/10/12 09:48:38;;;;;;;;;;;;;;;;;;5154268;27;19968;-53
2023/10/12 09:51:06;;;;;;;;;;;;;;;;;;5154126;27;20502;-53
2023/10/12 09:53:35;;;;;;;;;;;;;;;;;;5153778;27;19923;-54
2023/10/12 09:56:11;;;;;;;;;;;;;;;;;;5154471;27;20019;-54
2023/10/12 09:58:43;;;;;;;;;;;;;;;;;;5154044;27;19992;-54
2023/10/12 10:01:15;;;;;;;;;;;;;;;;;;5153869;27;19927;-54
2023/10/12 10:03:47;;;;;;;;;;;;;;;;;;5154225;27;19931;-53
2023/10/12 10:06:19;;;;;;;;;;;;;;;;;;5153992;27;19976;-54
2023/10/12 10:08:45;;;;;;;;;;;;;;;;;;5153271;27;20363;-53
2023/10/12 10:11:12;;;;;;;;;;;;;;;;;;5154111;27;19930;-53
2023/10/12 10:13:37;;;;;;;;;;;;;;;;;;5153272;27;20275;-54
2023/10/12 10:16:08;;;;;;;;;;;;;;;;;;5153877;27;20360;-53
2023/10/12 10:18:33;;;;;;;;;;;;;;;;;;5152078;27;19939;-53
2023/10/12 10:21:05;;;;;;;;;;;;;;;;;;5153538;27;20033;-53
2023/10/12 10:23:37;;;;;;;;;;;;;;;;;;5154034;27;19970;-54
2023/10/12 10:26:34;;;;;;;;;;;;;;;;;;5153627;27;20376;-53
2023/10/12 10:28:55;;;;;;;;;;;;;;;;;;5144783;27;20074;-53
2023/10/12 10:31:20;;;;;;;;;;;;;;;;;;5156724;27;19926;-54
2023/10/12 10:33:51;;;;;;;;;;;;;;;;;;5174324;27;19945;-54
2023/10/12 10:36:17;;;;;;;;;;;;;;;;;;5174622;27;20306;-53
2023/10/12 10:38:53;;;;;;;;;;;;;;;;;;5151781;27;20279;-53
2023/10/12 10:41:22;;;;;;;;;;;;;;;;;;5133195;28;19931;-54
2023/10/12 10:43:51;;;;;;;;;;;;;;;;;;5132735;28;19931;-53
2023/10/12 10:46:17;;;;;;;;;;;;;;;;;;5132936;28;20276;-53
2023/10/12 10:48:49;;;;;;;;;;;;;;;;;;5132717;27;19923;-53
2023/10/12 10:51:40;;;;;;;;;;;;;;;;;;5129339;27;20287;-53
2023/10/12 10:54:12;;;;;;;;;;;;;;;;;;5151074;27;20325;-54
2023/10/12 10:56:38;;;;;;;;;;;;;;;;;;5152996;27;19923;-53
2023/10/12 10:59:05;;;;;;;;;;;;;;;;;;5152099;27;19957;-53
2023/10/12 11:01:31;;;;;;;;;;;;;;;;;;5152450;27;19931;-53
2023/10/12 11:03:58;;;;;;;;;;;;;;;;;;5152851;27;20023;-53
2023/10/12 11:06:23;;;;;;;;;;;;;;;;;;5152945;27;19934;-53
2023/10/12 11:08:53;;;;;;;;;;;;;;;;;;5151118;27;19927;-53
2023/10/12 11:11:25;;;;;;;;;;;;;;;;;;5152407;27;19948;-54
2023/10/12 11:13:52;;;;;;;;;;;;;;;;;;5151828;27;19970;-53
2023/10/12 11:16:21;;;;;;;;;;;;;;;;;;5152712;27;19941;-54
2023/10/12 11:18:47;;;;;;;;;;;;;;;;;;5152370;27;19930;-54
2023/10/12 11:21:13;;;;;;;;;;;;;;;;;;5149719;27;19923;-53
2023/10/12 11:23:39;;;;;;;;;;;;;;;;;;5152800;27;19930;-53
2023/10/12 11:26:04;;;;;;;;;;;;;;;;;;5152589;27;19973;-53
2023/10/12 11:28:30;;;;;;;;;;;;;;;;;;5143022;27;20007;-54
2023/10/12 11:31:01;;;;;;;;;;;;;;;;;;5159076;27;19930;-54
2023/10/12 11:33:27;;;;;;;;;;;;;;;;;;5152211;27;20351;-54
2023/10/12 11:35:54;;;;;;;;;;;;;;;;;;5152244;27;19927;-53
2023/10/12 11:38:20;;;;;;;;;;;;;;;;;;5152289;27;20103;-53
2023/10/12 11:40:48;;;;;;;;;;;;;;;;;;5152669;27;20441;-54
2023/10/12 11:43:13;;;;;;;;;;;;;;;;;;5152420;27;19979;-53
2023/10/12 11:45:39;;;;;;;;;;;;;;;;;;5152118;27;20017;-54
2023/10/12 11:48:04;;;;;;;;;;;;;;;;;;5151770;27;20025;-54
2023/10/12 11:50:31;;;;;;;;;;;;;;;;;;5151971;27;20034;-53
2023/10/12 11:52:56;;;;;;;;;;;;;;;;;;5151942;27;19927;-53
2023/10/12 11:55:27;;;;;;;;;;;;;;;;;;5151945;27;19985;-54
2023/10/12 11:57:54;;;;;;;;;;;;;;;;;;5152209;27;19958;-53
2023/10/12 12:00:26;;;;;;;;;;;;;;;;;;5152193;27;20398;-53
2023/10/12 12:02:52;;;;;;;;;;;;;;;;;;5152122;27;20352;-54
2023/10/12 12:05:19;;;;;;;;;;;;;;;;;;5152583;27;19930;-53
2023/10/12 12:07:50;;;;;;;;;;;;;;;;;;5151552;27;19972;-54
2023/10/12 12:10:17;;;;;;;;;;;;;;;;;;5151533;27;20403;-53
2023/10/12 12:12:44;;;;;;;;;;;;;;;;;;5150982;27;19927;-54
2023/10/12 12:15:09;;;;;;;;;;;;;;;;;;5151465;27;19927;-53
2023/10/12 12:17:35;;;;;;;;;;;;;;;;;;5152006;27;20007;-54
2023/10/12 12:20:00;;;;;;;;;;;;;;;;;;5152115;27;19931;-53
2023/10/12 12:22:38;;;;;;;;;;;;;;;;;;5151071;27;19976;-53
2023/10/12 12:25:16;;;;;;;;;;;;;;;;;;5152334;27;19970;-53
2023/10/12 12:27:48;;;;;;;;;;;;;;;;;;5141107;27;19927;-53
2023/10/12 12:30:23;;;;;;;;;;;;;;;;;;5151666;27;20428;-53
2023/10/12 12:33:14;;;;;;;;;;;;;;;;;;5136303;27;19923;-53
2023/10/12 12:35:40;;;;;;;;;;;;;;;;;;5151135;27;19923;-53
2023/10/12 12:38:06;;;;;;;;;;;;;;;;;;5151529;27;19962;-54
2023/10/12 12:40:38;;;;;;;;;;;;;;;;;;5151621;27;20017;-53
2023/10/12 12:43:04;;;;;;;;;;;;;;;;;;5151307;27;19927;-53
2023/10/12 12:45:30;;;;;;;;;;;;;;;;;;5151722;27;19931;-53
2023/10/12 12:47:55;;;;;;;;;;;;;;;;;;5151087;27;19950;-53
2023/10/12 12:50:21;;;;;;;;;;;;;;;;;;5151669;27;20403;-53
2023/10/12 12:52:46;;;;;;;;;;;;;;;;;;5151559;27;20005;-54
2023/10/12 12:55:15;;;;;;;;;;;;;;;;;;5150853;27;19967;-52
2023/10/12 12:57:42;;;;;;;;;;;;;;;;;;5151587;27;19923;-53
2023/10/12 13:00:08;;;;;;;;;;;;;;;;;;5151985;27;20371;-54
2023/10/12 13:02:33;;;;;;;;;;;;;;;;;;5155152;27;19927;-53
2023/10/12 13:05:00;;;;;;;;;;;;;;;;;;5155844;27;19974;-53
2023/10/12 13:07:25;;;;;;;;;;;;;;;;;;5154801;27;19927;-53
2023/10/12 13:09:51;;;;;;;;;;;;;;;;;;5154237;27;19938;-53
2023/10/12 13:12:17;;;;;;;;;;;;;;;;;;5155315;27;20365;-53
2023/10/12 13:14:42;;;;;;;;;;;;;;;;;;5153786;27;19962;-53
2023/10/12 13:17:09;;;;;;;;;;;;;;;;;;5155668;27;19923;-53
2023/10/12 13:19:35;;;;;;;;;;;;;;;;;;5136631;27;19927;-53
2023/10/12 13:22:00;;;;;;;;;;;;;;;;;;5134905;28;19924;-53
2023/10/12 13:24:28;;;;;;;;;;;;;;;;;;5151798;27;19977;-53
2023/10/12 13:26:55;;;;;;;;;;;;;;;;;;5154878;27;19923;-53
2023/10/12 13:29:20;;;;;;;;;;;;;;;;;;5154769;27;19923;-53
2023/10/12 13:31:46;;;;;;;;;;;;;;;;;;5155171;27;20013;-53
2023/10/12 13:34:13;;;;;;;;;;;;;;;;;;5154664;27;19931;-53
2023/10/12 13:36:39;;;;;;;;;;;;;;;;;;5155142;27;19923;-53
2023/10/12 13:39:09;;;;;;;;;;;;;;;;;;5154495;27;19927;-53
2023/10/12 13:41:34;;;;;;;;;;;;;;;;;;5154386;27;19973;-53
2023/10/12 13:44:05;;;;;;;;;;;;;;;;;;5153712;27;19923;-53
2023/10/12 13:46:30;;;;;;;;;;;;;;;;;;5154730;27;20278;-53
2023/10/12 13:48:56;;;;;;;;;;;;;;;;;;5154156;27;20383;-53
2023/10/12 13:51:23;;;;;;;;;;;;;;;;;;5154561;27;20421;-54
2023/10/12 13:53:50;;;;;;;;;;;;;;;;;;5153958;27;19962;-53
2023/10/12 13:56:16;;;;;;;;;;;;;;;;;;5154332;27;19968;-52
2023/10/12 13:58:44;;;;;;;;;;;;;;;;;;5154057;27;19927;-53
2023/10/12 14:01:26;;;;;;;;;;;;;;;;;;5154208;27;20295;-53
2023/10/12 14:03:55;;;;;;;;;;;;;;;;;;5154164;27;19933;-53
2023/10/12 14:06:21;;;;;;;;;;;;;;;;;;5154629;27;19927;-53
2023/10/12 14:08:46;;;;;;;;;;;;;;;;;;5153121;27;19931;-53
2023/10/12 14:11:12;;;;;;;;;;;;;;;;;;5154373;27;19962;-53
2023/10/12 14:13:38;;;;;;;;;;;;;;;;;;5153259;27;20295;-53
2023/10/12 14:16:04;;;;;;;;;;;;;;;;;;5153145;27;19962;-53
2023/10/12 14:18:30;;;;;;;;;;;;;;;;;;5145341;27;20014;-52
2023/10/12 14:20:56;;;;;;;;;;;;;;;;;;5114794;28;20224;-53
2023/10/12 14:23:30;;;;;;;;;;;;;;;;;;5133390;28;20026;-53
2023/10/12 14:25:57;;;;;;;;;;;;;;;;;;5145837;27;19938;-53
2023/10/12 14:28:22;;;;;;;;;;;;;;;;;;5153035;27;19958;-53
2023/10/12 14:30:50;;;;;;;;;;;;;;;;;;5153532;27;20014;-53
2023/10/12 14:33:15;;;;;;;;;;;;;;;;;;5153127;27;20355;-53
2023/10/12 14:35:41;;;;;;;;;;;;;;;;;;5153110;27;20010;-51
2023/10/12 14:38:07;;;;;;;;;;;;;;;;;;5153419;27;20414;-53
2023/10/12 14:40:32;;;;;;;;;;;;;;;;;;5153314;27;20264;-53
2023/10/12 14:43:05;;;;;;;;;;;;;;;;;;5153390;27;20473;-53
2023/10/12 14:45:31;;;;;;;;;;;;;;;;;;5153316;27;19930;-53
2023/10/12 14:47:59;;;;;;;;;;;;;;;;;;5152822;27;19931;-53
2023/10/12 14:50:24;;;;;;;;;;;;;;;;;;5153476;27;19923;-53
2023/10/12 14:52:53;;;;;;;;;;;;;;;;;;5153478;27;19966;-53
2023/10/12 14:55:20;;;;;;;;;;;;;;;;;;5153007;27;19966;-53
2023/10/12 14:57:49;;;;;;;;;;;;;;;;;;5152970;27;19923;-53
2023/10/12 15:00:22;;;;;;;;;;;;;;;;;;5152996;27;20406;-53
2023/10/12 15:02:48;;;;;;;;;;;;;;;;;;5153035;27;19934;-53
2023/10/12 15:05:14;;;;;;;;;;;;;;;;;;5153158;27;19923;-53
2023/10/12 15:07:39;;;;;;;;;;;;;;;;;;5152567;27;19945;-53
2023/10/12 15:10:05;;;;;;;;;;;;;;;;;;5151930;27;19977;-53
2023/10/12 15:12:32;;;;;;;;;;;;;;;;;;5152429;27;19930;-52
2023/10/12 15:14:59;;;;;;;;;;;;;;;;;;5151634;27;19958;-53
2023/10/12 15:17:25;;;;;;;;;;;;;;;;;;5152128;27;19927;-53
2023/10/12 15:19:50;;;;;;;;;;;;;;;;;;5132117;27;20019;-53
2023/10/12 15:22:18;;;;;;;;;;;;;;;;;;5132454;28;20347;-53
2023/10/12 15:24:43;;;;;;;;;;;;;;;;;;5131782;27;19927;-53
2023/10/12 15:27:10;;;;;;;;;;;;;;;;;;5147954;27;20010;-53
2023/10/12 15:29:37;;;;;;;;;;;;;;;;;;5152726;27;19971;-53
2023/10/12 15:32:03;;;;;;;;;;;;;;;;;;5153488;27;19983;-53
2023/10/12 15:34:31;;;;;;;;;;;;;;;;;;5152526;27;19923;-53
2023/10/12 15:36:58;;;;;;;;;;;;;;;;;;5153361;27;20017;-53
2023/10/12 15:39:26;;;;;;;;;;;;;;;;;;5152820;27;19927;-53
2023/10/12 15:41:51;;;;;;;;;;;;;;;;;;5152804;27;19927;-53
2023/10/12 15:44:17;;;;;;;;;;;;;;;;;;5151945;27;20009;-53
2023/10/12 15:46:44;;;;;;;;;;;;;;;;;;5153154;27;20012;-53
2023/10/12 15:49:10;;;;;;;;;;;;;;;;;;5152242;27;19923;-53
2023/10/12 15:51:35;;;;;;;;;;;;;;;;;;5152623;27;20051;-53
2023/10/12 15:54:05;;;;;;;;;;;;;;;;;;5152698;27;19931;-53
2023/10/12 15:56:30;;;;;;;;;;;;;;;;;;5152729;27;20294;-53
2023/10/12 15:58:56;;;;;;;;;;;;;;;;;;5152761;27;20430;-53
2023/10/12 16:01:21;;;;;;;;;;;;;;;;;;5152827;27;20342;-53
2023/10/12 16:03:47;;;;;;;;;;;;;;;;;;5152874;27;20026;-53
2023/10/12 16:06:13;;;;;;;;;;;;;;;;;;5153077;27;19923;-53
2023/10/12 16:08:39;;;;;;;;;;;;;;;;;;5152155;27;20370;-53
2023/10/12 16:11:05;;;;;;;;;;;;;;;;;;5152914;27;19934;-53
2023/10/12 16:13:33;;;;;;;;;;;;;;;;;;5151896;27;19939;-53
2023/10/12 16:15:59;;;;;;;;;;;;;;;;;;5152194;27;20450;-53
2023/10/12 16:18:24;;;;;;;;;;;;;;;;;;5152305;27;20006;-53
2023/10/12 16:20:50;;;;;;;;;;;;;;;;;;5152460;27;19974;-53
2023/10/12 16:23:16;;;;;;;;;;;;;;;;;;5152668;27;19974;-53
2023/10/12 16:25:41;;;;;;;;;;;;;;;;;;5146847;27;19961;-53
2023/10/12 16:28:08;;;;;;;;;;;;;;;;;;5154994;27;20022;-53
2023/10/12 16:30:34;;;;;;;;;;;;;;;;;;5151797;27;19970;-53
2023/10/12 16:33:00;;;;;;;;;;;;;;;;;;5131387;28;20383;-53
2023/10/12 16:35:25;;;;;;;;;;;;;;;;;;5131023;27;19924;-53
2023/10/12 16:37:51;;;;;;;;;;;;;;;;;;5137742;27;19923;-53
2023/10/12 16:40:16;;;;;;;;;;;;;;;;;;5155487;27;19923;-52
2023/10/12 16:42:42;;;;;;;;;;;;;;;;;;5155204;27;19952;-53
2023/10/12 16:45:08;;;;;;;;;;;;;;;;;;5155254;27;19923;-53
2023/10/12 16:47:34;;;;;;;;;;;;;;;;;;5155199;27;19930;-53
2023/10/12 16:49:59;;;;;;;;;;;;;;;;;;5154945;27;19923;-53
2023/10/12 16:52:25;;;;;;;;;;;;;;;;;;5155488;27;19930;-53
2023/10/12 16:54:51;;;;;;;;;;;;;;;;;;5154896;27;20006;-53
2023/10/12 16:57:17;;;;;;;;;;;;;;;;;;5155081;27;19923;-53
2023/10/12 16:59:42;;;;;;;;;;;;;;;;;;5154605;27;19983;-53
2023/10/12 17:02:08;;;;;;;;;;;;;;;;;;5155469;27;20312;-53
2023/10/12 17:04:34;;;;;;;;;;;;;;;;;;5155377;27;19966;-53
2023/10/12 17:06:59;;;;;;;;;;;;;;;;;;5155382;27;19973;-53
2023/10/12 17:09:25;;;;;;;;;;;;;;;;;;5154507;27;20472;-53
2023/10/12 17:11:50;;;;;;;;;;;;;;;;;;5155324;27;19958;-52
2023/10/12 17:14:16;;;;;;;;;;;;;;;;;;5154081;27;19995;-53
2023/10/12 17:16:41;;;;;;;;;;;;;;;;;;5154525;27;19966;-53
2023/10/12 17:19:07;;;;;;;;;;;;;;;;;;5154118;27;19923;-53
2023/10/12 17:21:32;;;;;;;;;;;;;;;;;;5154417;27;19924;-53
2023/10/12 17:23:58;;;;;;;;;;;;;;;;;;5154376;27;20021;-53
2023/10/12 17:26:26;;;;;;;;;;;;;;;;;;5154695;27;20275;-53
2023/10/12 17:28:52;;;;;;;;;;;;;;;;;;5154486;27;19927;-53
2023/10/12 17:31:18;;;;;;;;;;;;;;;;;;5153891;27;20005;-53
2023/10/12 17:33:43;;;;;;;;;;;;;;;;;;5154968;27;19934;-53
2023/10/12 17:36:09;;;;;;;;;;;;;;;;;;5154953;27;19959;-53
2023/10/12 17:38:35;;;;;;;;;;;;;;;;;;5145469;27;20420;-53
2023/10/12 17:41:01;;;;;;;;;;;;;;;;;;5134516;28;20056;-52
2023/10/12 17:43:30;;;;;;;;;;;;;;;;;;5133801;28;19935;-53
2023/10/12 17:45:55;;;;;;;;;;;;;;;;;;5133961;28;20772;-53
2023/10/12 17:48:21;;;;;;;;;;;;;;;;;;5133155;27;20014;-53
2023/10/12 17:50:47;;;;;;;;;;;;;;;;;;5134381;28;20294;-53
2023/10/12 17:53:14;;;;;;;;;;;;;;;;;;5133779;28;19962;-53
2023/10/12 17:55:39;;;;;;;;;;;;;;;;;;5133711;28;19976;-53
2023/10/12 17:58:05;;;;;;;;;;;;;;;;;;5133531;27;19931;-53
2023/10/12 18:00:30;;;;;;;;;;;;;;;;;;5134014;28;19969;-53
2023/10/12 18:02:56;;;;;;;;;;;;;;;;;;5133607;28;19967;-53
2023/10/12 18:05:21;;;;;;;;;;;;;;;;;;5133761;28;19934;-53
2023/10/12 18:07:53;;;;;;;;;;;;;;;;;;5133443;27;19924;-53
2023/10/12 18:10:19;;;;;;;;;;;;;;;;;;5133210;28;19928;-52
2023/10/12 18:12:44;;;;;;;;;;;;;;;;;;5133050;28;20342;-53
2023/10/12 18:15:11;;;;;;;;;;;;;;;;;;5132940;28;19930;-53
2023/10/12 18:17:37;;;;;;;;;;;;;;;;;;5133012;27;19923;-53